sensor_id;sensor_type;location;lat;lon;timestamp;temperature;humidity
19220;DHT22;9744;49.364;7.484;2023-01-15T00:00:32;7.90;99.90
19220;DHT22;9744;49.364;7.484;2023-01-15T00:03:01;7.90;99.90
19220;DHT22;9744;49.364;7.484;2023-01-15T00:05:28;7.90;99.90
19220;DHT22;9744;49.364;7.484;2023-01-15T00:07:55;7.90;99.90
19220;DHT22;9744;49.364;7.484;2023-01-15T00:10:22;7.90;99.90
19220;DHT22;9744;49.364;7.484;2023-01-15T00:12:50;7.90;99.90
19220;DHT22;9744;49.364;7.484;2023-01-15T00:15:17;7.90;99.90
19220;DHT22;9744;49.364;7.484;2023-01-15T00:17:44;7.90;99.90
19220;DHT22;9744;49.364;7.484;2023-01-15T00:20:13;7.90;99.90
19220;DHT22;9744;49.364;7.484;2023-01-15T00:22:40;7.90;99.90
19220;DHT22;9744;49.364;7.484;2023-01-15T00:25:08;7.90;99.90
19220;DHT22;9744;49.364;7.484;2023-01-15T00:27:53;7.90;99.90
19220;DHT22;9744;49.364;7.484;2023-01-15T00:30:21;7.90;99.90
19220;DHT22;9744;49.364;7.484;2023-01-15T00:32:49;7.90;99.90
19220;DHT22;9744;49.364;7.484;2023-01-15T00:35:20;7.90;99.90
19220;DHT22;9744;49.364;7.484;2023-01-15T00:37:48;7.90;99.90
19220;DHT22;9744;49.364;7.484;2023-01-15T00:40:17;7.90;99.90
19220;DHT22;9744;49.364;7.484;2023-01-15T00:42:45;7.90;99.90
19220;DHT22;9744;49.364;7.484;2023-01-15T00:45:12;7.90;99.90
19220;DHT22;9744;49.364;7.484;2023-01-15T00:47:42;7.90;99.90
19220;DHT22;9744;49.364;7.484;2023-01-15T00:50:11;7.90;99.90
19220;DHT22;9744;49.364;7.484;2023-01-15T00:52:40;7.80;99.90
19220;DHT22;9744;49.364;7.484;2023-01-15T00:55:08;7.90;99.90
19220;DHT22;9744;49.364;7.484;2023-01-15T00:57:35;7.90;99.90
19220;DHT22;9744;49.364;7.484;2023-01-15T01:00:03;7.90;99.90
19220;DHT22;9744;49.364;7.484;2023-01-15T01:02:31;7.90;99.90
19220;DHT22;9744;49.364;7.484;2023-01-15T01:04:59;7.90;99.90
19220;DHT22;9744;49.364;7.484;2023-01-15T01:07:26;7.90;99.90
19220;DHT22;9744;49.364;7.484;2023-01-15T01:09:55;7.90;99.90
19220;DHT22;9744;49.364;7.484;2023-01-15T01:12:22;7.90;99.90
19220;DHT22;9744;49.364;7.484;2023-01-15T01:14:49;7.90;99.90
19220;DHT22;9744;49.364;7.484;2023-01-15T01:17:16;7.90;99.90
19220;DHT22;9744;49.364;7.484;2023-01-15T01:19:43;7.90;99.90
19220;DHT22;9744;49.364;7.484;2023-01-15T01:22:11;7.90;99.90
19220;DHT22;9744;49.364;7.484;2023-01-15T01:24:39;7.90;99.90
19220;DHT22;9744;49.364;7.484;2023-01-15T01:27:07;7.90;99.90
19220;DHT22;9744;49.364;7.484;2023-01-15T01:29:34;7.90;99.90
19220;DHT22;9744;49.364;7.484;2023-01-15T01:32:02;7.90;99.90
19220;DHT22;9744;49.364;7.484;2023-01-15T01:34:29;7.90;99.90
19220;DHT22;9744;49.364;7.484;2023-01-15T01:36:58;7.80;99.90
19220;DHT22;9744;49.364;7.484;2023-01-15T01:39:25;7.80;99.90
19220;DHT22;9744;49.364;7.484;2023-01-15T01:41:53;7.80;99.90
19220;DHT22;9744;49.364;7.484;2023-01-15T01:44:58;7.80;99.90
19220;DHT22;9744;49.364;7.484;2023-01-15T01:47:28;7.70;99.90
19220;DHT22;9744;49.364;7.484;2023-01-15T01:49:59;7.70;99.90
19220;DHT22;9744;49.364;7.484;2023-01-15T01:52:31;7.80;99.90
19220;DHT22;9744;49.364;7.484;2023-01-15T01:55:01;7.80;99.90
19220;DHT22;9744;49.364;7.484;2023-01-15T01:57:28;7.60;99.90
19220;DHT22;9744;49.364;7.484;2023-01-15T01:59:58;7.50;99.90
19220;DHT22;9744;49.364;7.484;2023-01-15T02:02:41;7.50;99.90
19220;DHT22;9744;49.364;7.484;2023-01-15T02:05:13;7.50;99.90
19220;DHT22;9744;49.364;7.484;2023-01-15T02:07:41;7.50;99.90
19220;DHT22;9744;49.364;7.484;2023-01-15T02:10:13;7.50;99.90
19220;DHT22;9744;49.364;7.484;2023-01-15T02:12:41;7.40;99.90
19220;DHT22;9744;49.364;7.484;2023-01-15T02:15:15;7.30;99.90
19220;DHT22;9744;49.364;7.484;2023-01-15T02:17:53;7.20;99.90
19220;DHT22;9744;49.364;7.484;2023-01-15T02:20:29;7.20;99.90
19220;DHT22;9744;49.364;7.484;2023-01-15T02:23:17;7.00;99.90
19220;DHT22;9744;49.364;7.484;2023-01-15T02:26:12;6.90;99.90
19220;DHT22;9744;49.364;7.484;2023-01-15T02:28:49;7.00;99.90
19220;DHT22;9744;49.364;7.484;2023-01-15T02:31:21;7.10;99.90
19220;DHT22;9744;49.364;7.484;2023-01-15T02:33:56;7.10;99.90
19220;DHT22;9744;49.364;7.484;2023-01-15T02:36:27;7.10;99.90
19220;DHT22;9744;49.364;7.484;2023-01-15T02:39:00;7.10;99.90
19220;DHT22;9744;49.364;7.484;2023-01-15T02:41:31;7.00;99.90
19220;DHT22;9744;49.364;7.484;2023-01-15T02:44:03;7.00;99.90
19220;DHT22;9744;49.364;7.484;2023-01-15T02:46:34;7.00;99.90
19220;DHT22;9744;49.364;7.484;2023-01-15T02:49:07;6.90;99.90
19220;DHT22;9744;49.364;7.484;2023-01-15T02:51:39;6.70;99.90
19220;DHT22;9744;49.364;7.484;2023-01-15T02:54:11;6.70;99.90
19220;DHT22;9744;49.364;7.484;2023-01-15T02:56:40;6.70;99.90
19220;DHT22;9744;49.364;7.484;2023-01-15T02:59:17;6.70;99.90
19220;DHT22;9744;49.364;7.484;2023-01-15T03:01:49;6.50;99.90
19220;DHT22;9744;49.364;7.484;2023-01-15T03:04:21;6.50;99.90
19220;DHT22;9744;49.364;7.484;2023-01-15T03:06:57;6.60;99.90
19220;DHT22;9744;49.364;7.484;2023-01-15T03:09:27;6.50;99.90
19220;DHT22;9744;49.364;7.484;2023-01-15T03:12:02;6.50;99.90
19220;DHT22;9744;49.364;7.484;2023-01-15T03:14:41;6.60;99.90
19220;DHT22;9744;49.364;7.484;2023-01-15T03:17:13;6.50;99.90
19220;DHT22;9744;49.364;7.484;2023-01-15T03:19:46;6.40;99.90
19220;DHT22;9744;49.364;7.484;2023-01-15T03:22:21;6.30;99.90
19220;DHT22;9744;49.364;7.484;2023-01-15T03:24:54;6.30;99.90
19220;DHT22;9744;49.364;7.484;2023-01-15T03:27:26;6.20;99.90
19220;DHT22;9744;49.364;7.484;2023-01-15T03:30:05;6.20;99.90
19220;DHT22;9744;49.364;7.484;2023-01-15T03:32:34;6.10;99.90
19220;DHT22;9744;49.364;7.484;2023-01-15T03:35:04;6.20;99.90
19220;DHT22;9744;49.364;7.484;2023-01-15T03:37:32;6.10;99.90
19220;DHT22;9744;49.364;7.484;2023-01-15T03:40:01;6.00;99.90
19220;DHT22;9744;49.364;7.484;2023-01-15T03:42:43;6.30;99.90
19220;DHT22;9744;49.364;7.484;2023-01-15T03:45:23;6.30;99.90
19220;DHT22;9744;49.364;7.484;2023-01-15T03:48:00;5.90;99.90
19220;DHT22;9744;49.364;7.484;2023-01-15T03:50:38;5.70;99.90
19220;DHT22;9744;49.364;7.484;2023-01-15T03:53:12;5.60;99.90
19220;DHT22;9744;49.364;7.484;2023-01-15T03:55:54;5.50;99.90
19220;DHT22;9744;49.364;7.484;2023-01-15T03:58:28;5.40;99.90
19220;DHT22;9744;49.364;7.484;2023-01-15T04:01:00;5.30;99.90
19220;DHT22;9744;49.364;7.484;2023-01-15T04:03:31;5.20;99.90
19220;DHT22;9744;49.364;7.484;2023-01-15T04:06:05;5.20;99.90
19220;DHT22;9744;49.364;7.484;2023-01-15T04:08:37;5.10;99.90
19220;DHT22;9744;49.364;7.484;2023-01-15T04:11:05;5.00;99.90
19220;DHT22;9744;49.364;7.484;2023-01-15T04:13:40;5.00;99.90
19220;DHT22;9744;49.364;7.484;2023-01-15T04:16:25;4.90;99.90
19220;DHT22;9744;49.364;7.484;2023-01-15T04:18:52;4.90;99.90
19220;DHT22;9744;49.364;7.484;2023-01-15T04:21:24;4.80;99.90
19220;DHT22;9744;49.364;7.484;2023-01-15T04:23:51;4.70;99.90
19220;DHT22;9744;49.364;7.484;2023-01-15T04:26:18;4.70;99.90
19220;DHT22;9744;49.364;7.484;2023-01-15T04:28:46;4.70;99.90
19220;DHT22;9744;49.364;7.484;2023-01-15T04:31:13;4.60;99.90
19220;DHT22;9744;49.364;7.484;2023-01-15T04:33:42;4.70;99.90
19220;DHT22;9744;49.364;7.484;2023-01-15T04:36:09;4.60;99.90
19220;DHT22;9744;49.364;7.484;2023-01-15T04:38:37;4.70;99.90
19220;DHT22;9744;49.364;7.484;2023-01-15T04:41:04;4.70;99.90
19220;DHT22;9744;49.364;7.484;2023-01-15T04:43:50;4.60;99.90
19220;DHT22;9744;49.364;7.484;2023-01-15T04:46:35;4.60;99.90
19220;DHT22;9744;49.364;7.484;2023-01-15T04:49:06;4.60;99.90
19220;DHT22;9744;49.364;7.484;2023-01-15T04:51:36;4.60;99.90
19220;DHT22;9744;49.364;7.484;2023-01-15T04:54:04;4.50;99.90
19220;DHT22;9744;49.364;7.484;2023-01-15T04:56:36;4.50;99.90
19220;DHT22;9744;49.364;7.484;2023-01-15T04:59:03;4.40;99.90
19220;DHT22;9744;49.364;7.484;2023-01-15T05:01:31;4.40;99.90
19220;DHT22;9744;49.364;7.484;2023-01-15T05:03:59;4.50;99.90
19220;DHT22;9744;49.364;7.484;2023-01-15T05:06:30;4.50;99.90
19220;DHT22;9744;49.364;7.484;2023-01-15T05:08:57;4.40;99.90
19220;DHT22;9744;49.364;7.484;2023-01-15T05:11:24;4.30;99.90
19220;DHT22;9744;49.364;7.484;2023-01-15T05:13:52;4.30;99.90
19220;DHT22;9744;49.364;7.484;2023-01-15T05:16:21;4.30;99.90
19220;DHT22;9744;49.364;7.484;2023-01-15T05:18:50;4.30;99.90
19220;DHT22;9744;49.364;7.484;2023-01-15T05:21:20;4.30;99.90
19220;DHT22;9744;49.364;7.484;2023-01-15T05:23:50;4.30;99.90
19220;DHT22;9744;49.364;7.484;2023-01-15T05:26:19;4.20;99.90
19220;DHT22;9744;49.364;7.484;2023-01-15T05:28:47;4.20;99.90
19220;DHT22;9744;49.364;7.484;2023-01-15T05:31:16;4.10;99.90
19220;DHT22;9744;49.364;7.484;2023-01-15T05:33:44;4.10;99.90
19220;DHT22;9744;49.364;7.484;2023-01-15T05:36:13;4.20;99.90
19220;DHT22;9744;49.364;7.484;2023-01-15T05:38:41;4.10;99.90
19220;DHT22;9744;49.364;7.484;2023-01-15T05:41:14;4.10;99.90
19220;DHT22;9744;49.364;7.484;2023-01-15T05:44:02;4.10;99.90
19220;DHT22;9744;49.364;7.484;2023-01-15T05:46:29;4.00;99.90
19220;DHT22;9744;49.364;7.484;2023-01-15T05:48:59;4.00;99.90
19220;DHT22;9744;49.364;7.484;2023-01-15T05:51:27;3.90;99.90
19220;DHT22;9744;49.364;7.484;2023-01-15T05:53:55;3.90;99.90
19220;DHT22;9744;49.364;7.484;2023-01-15T05:56:24;3.90;99.90
19220;DHT22;9744;49.364;7.484;2023-01-15T05:58:52;3.80;99.90
19220;DHT22;9744;49.364;7.484;2023-01-15T06:01:20;3.80;99.90
19220;DHT22;9744;49.364;7.484;2023-01-15T06:03:47;3.80;99.90
19220;DHT22;9744;49.364;7.484;2023-01-15T06:06:17;3.80;99.90
19220;DHT22;9744;49.364;7.484;2023-01-15T06:08:44;3.80;99.90
19220;DHT22;9744;49.364;7.484;2023-01-15T06:11:12;3.70;99.90
19220;DHT22;9744;49.364;7.484;2023-01-15T06:13:41;3.70;99.90
19220;DHT22;9744;49.364;7.484;2023-01-15T06:16:08;3.70;99.90
19220;DHT22;9744;49.364;7.484;2023-01-15T06:18:36;3.70;99.90
19220;DHT22;9744;49.364;7.484;2023-01-15T06:21:04;3.70;99.90
19220;DHT22;9744;49.364;7.484;2023-01-15T06:23:32;3.70;99.90
19220;DHT22;9744;49.364;7.484;2023-01-15T06:26:02;3.70;99.90
19220;DHT22;9744;49.364;7.484;2023-01-15T06:28:30;3.60;99.90
19220;DHT22;9744;49.364;7.484;2023-01-15T06:30:59;3.60;99.90
19220;DHT22;9744;49.364;7.484;2023-01-15T06:33:26;3.60;99.90
19220;DHT22;9744;49.364;7.484;2023-01-15T06:35:53;3.70;99.90
19220;DHT22;9744;49.364;7.484;2023-01-15T06:38:20;3.70;99.90
19220;DHT22;9744;49.364;7.484;2023-01-15T06:40:47;3.70;99.90
19220;DHT22;9744;49.364;7.484;2023-01-15T06:43:14;3.70;99.90
19220;DHT22;9744;49.364;7.484;2023-01-15T06:46:00;3.50;99.90
19220;DHT22;9744;49.364;7.484;2023-01-15T06:48:45;3.60;99.90
19220;DHT22;9744;49.364;7.484;2023-01-15T06:51:13;3.50;99.90
19220;DHT22;9744;49.364;7.484;2023-01-15T06:53:44;3.50;99.90
19220;DHT22;9744;49.364;7.484;2023-01-15T06:56:12;3.50;99.90
19220;DHT22;9744;49.364;7.484;2023-01-15T06:58:40;3.30;99.90
19220;DHT22;9744;49.364;7.484;2023-01-15T07:01:11;3.40;99.90
19220;DHT22;9744;49.364;7.484;2023-01-15T07:03:39;3.40;99.90
19220;DHT22;9744;49.364;7.484;2023-01-15T07:06:07;3.40;99.90
19220;DHT22;9744;49.364;7.484;2023-01-15T07:08:35;3.30;99.90
19220;DHT22;9744;49.364;7.484;2023-01-15T07:11:03;3.30;99.90
19220;DHT22;9744;49.364;7.484;2023-01-15T07:13:31;3.40;99.90
19220;DHT22;9744;49.364;7.484;2023-01-15T07:15:59;3.40;99.90
19220;DHT22;9744;49.364;7.484;2023-01-15T07:18:29;3.40;99.90
19220;DHT22;9744;49.364;7.484;2023-01-15T07:20:57;3.40;99.90
19220;DHT22;9744;49.364;7.484;2023-01-15T07:23:26;3.40;99.90
19220;DHT22;9744;49.364;7.484;2023-01-15T07:25:55;3.40;99.90
19220;DHT22;9744;49.364;7.484;2023-01-15T07:28:22;3.50;99.90
19220;DHT22;9744;49.364;7.484;2023-01-15T07:30:50;3.40;99.90
19220;DHT22;9744;49.364;7.484;2023-01-15T07:33:17;3.70;99.90
19220;DHT22;9744;49.364;7.484;2023-01-15T07:35:46;3.40;99.90
19220;DHT22;9744;49.364;7.484;2023-01-15T07:38:13;3.40;99.90
19220;DHT22;9744;49.364;7.484;2023-01-15T07:40:40;3.40;99.90
19220;DHT22;9744;49.364;7.484;2023-01-15T07:43:07;3.30;99.90
19220;DHT22;9744;49.364;7.484;2023-01-15T07:45:53;3.30;99.90
19220;DHT22;9744;49.364;7.484;2023-01-15T07:48:37;3.30;99.90
19220;DHT22;9744;49.364;7.484;2023-01-15T07:51:23;3.40;99.90
19220;DHT22;9744;49.364;7.484;2023-01-15T07:53:50;3.30;99.90
19220;DHT22;9744;49.364;7.484;2023-01-15T07:56:18;3.30;99.90
19220;DHT22;9744;49.364;7.484;2023-01-15T07:58:45;3.40;99.90
19220;DHT22;9744;49.364;7.484;2023-01-15T08:01:14;3.30;99.90
19220;DHT22;9744;49.364;7.484;2023-01-15T08:03:42;3.30;99.90
19220;DHT22;9744;49.364;7.484;2023-01-15T08:06:09;3.40;99.90
19220;DHT22;9744;49.364;7.484;2023-01-15T08:08:38;3.30;99.90
19220;DHT22;9744;49.364;7.484;2023-01-15T08:11:05;3.30;99.90
19220;DHT22;9744;49.364;7.484;2023-01-15T08:13:49;3.30;99.90
19220;DHT22;9744;49.364;7.484;2023-01-15T08:16:35;3.30;99.90
19220;DHT22;9744;49.364;7.484;2023-01-15T08:19:02;3.30;99.90
19220;DHT22;9744;49.364;7.484;2023-01-15T08:21:30;3.30;99.90
19220;DHT22;9744;49.364;7.484;2023-01-15T08:23:58;3.30;99.90
19220;DHT22;9744;49.364;7.484;2023-01-15T08:26:26;3.20;99.90
19220;DHT22;9744;49.364;7.484;2023-01-15T08:28:53;3.30;99.90
19220;DHT22;9744;49.364;7.484;2023-01-15T08:31:20;3.30;99.90
19220;DHT22;9744;49.364;7.484;2023-01-15T08:33:47;3.40;99.90
19220;DHT22;9744;49.364;7.484;2023-01-15T08:36:15;3.30;99.90
19220;DHT22;9744;49.364;7.484;2023-01-15T08:38:43;3.30;99.90
19220;DHT22;9744;49.364;7.484;2023-01-15T08:41:11;3.30;99.90
19220;DHT22;9744;49.364;7.484;2023-01-15T08:43:39;3.30;99.90
19220;DHT22;9744;49.364;7.484;2023-01-15T08:46:06;3.30;99.90
19220;DHT22;9744;49.364;7.484;2023-01-15T08:48:33;3.30;99.90
19220;DHT22;9744;49.364;7.484;2023-01-15T08:51:03;3.30;99.90
19220;DHT22;9744;49.364;7.484;2023-01-15T08:53:30;3.30;99.90
19220;DHT22;9744;49.364;7.484;2023-01-15T08:55:58;3.30;99.90
19220;DHT22;9744;49.364;7.484;2023-01-15T08:58:28;3.30;99.90
19220;DHT22;9744;49.364;7.484;2023-01-15T09:01:02;3.30;99.90
19220;DHT22;9744;49.364;7.484;2023-01-15T09:03:29;3.20;99.90
19220;DHT22;9744;49.364;7.484;2023-01-15T09:05:57;3.40;99.90
19220;DHT22;9744;49.364;7.484;2023-01-15T09:08:25;3.30;99.90
19220;DHT22;9744;49.364;7.484;2023-01-15T09:10:56;3.30;99.90
19220;DHT22;9744;49.364;7.484;2023-01-15T09:13:23;3.40;99.90
19220;DHT22;9744;49.364;7.484;2023-01-15T09:15:52;3.30;99.90
19220;DHT22;9744;49.364;7.484;2023-01-15T09:18:19;3.30;99.90
19220;DHT22;9744;49.364;7.484;2023-01-15T09:20:47;3.30;99.90
19220;DHT22;9744;49.364;7.484;2023-01-15T09:23:15;3.40;99.90
19220;DHT22;9744;49.364;7.484;2023-01-15T09:25:50;3.30;99.90
19220;DHT22;9744;49.364;7.484;2023-01-15T09:28:17;3.30;99.90
19220;DHT22;9744;49.364;7.484;2023-01-15T09:30:45;3.30;99.90
19220;DHT22;9744;49.364;7.484;2023-01-15T09:33:14;3.30;99.90
19220;DHT22;9744;49.364;7.484;2023-01-15T09:35:41;3.30;99.90
19220;DHT22;9744;49.364;7.484;2023-01-15T09:38:10;3.30;99.90
19220;DHT22;9744;49.364;7.484;2023-01-15T09:40:46;3.30;99.90
19220;DHT22;9744;49.364;7.484;2023-01-15T09:43:26;3.30;99.90
19220;DHT22;9744;49.364;7.484;2023-01-15T09:45:58;3.30;99.90
19220;DHT22;9744;49.364;7.484;2023-01-15T09:48:38;3.30;99.90
19220;DHT22;9744;49.364;7.484;2023-01-15T09:51:17;3.20;99.90
19220;DHT22;9744;49.364;7.484;2023-01-15T09:54:13;3.20;99.90
19220;DHT22;9744;49.364;7.484;2023-01-15T09:56:42;3.20;99.90
19220;DHT22;9744;49.364;7.484;2023-01-15T09:59:19;3.20;99.90
19220;DHT22;9744;49.364;7.484;2023-01-15T10:01:47;3.30;99.90
19220;DHT22;9744;49.364;7.484;2023-01-15T10:04:28;3.20;99.90
19220;DHT22;9744;49.364;7.484;2023-01-15T10:07:03;3.30;99.90
19220;DHT22;9744;49.364;7.484;2023-01-15T10:09:34;3.20;99.90
19220;DHT22;9744;49.364;7.484;2023-01-15T10:12:08;3.20;99.90
19220;DHT22;9744;49.364;7.484;2023-01-15T10:15:02;3.20;99.90
19220;DHT22;9744;49.364;7.484;2023-01-15T10:17:38;3.20;99.90
19220;DHT22;9744;49.364;7.484;2023-01-15T10:20:15;3.20;99.90
19220;DHT22;9744;49.364;7.484;2023-01-15T10:22:52;3.20;99.90
19220;DHT22;9744;49.364;7.484;2023-01-15T10:25:28;3.10;99.90
19220;DHT22;9744;49.364;7.484;2023-01-15T10:28:04;3.10;99.90
19220;DHT22;9744;49.364;7.484;2023-01-15T10:30:39;3.20;99.90
19220;DHT22;9744;49.364;7.484;2023-01-15T10:33:19;3.20;99.90
19220;DHT22;9744;49.364;7.484;2023-01-15T10:35:55;3.10;99.90
19220;DHT22;9744;49.364;7.484;2023-01-15T10:38:29;3.20;99.90
19220;DHT22;9744;49.364;7.484;2023-01-15T10:41:21;3.20;99.90
19220;DHT22;9744;49.364;7.484;2023-01-15T10:43:54;3.20;99.90
19220;DHT22;9744;49.364;7.484;2023-01-15T10:46:26;3.20;99.90
19220;DHT22;9744;49.364;7.484;2023-01-15T10:49:03;3.20;99.90
19220;DHT22;9744;49.364;7.484;2023-01-15T10:51:41;3.20;99.90
19220;DHT22;9744;49.364;7.484;2023-01-15T10:54:16;3.20;99.90
19220;DHT22;9744;49.364;7.484;2023-01-15T10:56:53;3.10;99.90
19220;DHT22;9744;49.364;7.484;2023-01-15T10:59:34;3.10;99.90
19220;DHT22;9744;49.364;7.484;2023-01-15T11:02:10;3.10;99.90
19220;DHT22;9744;49.364;7.484;2023-01-15T11:04:43;3.00;99.90
19220;DHT22;9744;49.364;7.484;2023-01-15T11:07:16;3.00;99.90
19220;DHT22;9744;49.364;7.484;2023-01-15T11:09:47;3.00;99.90
19220;DHT22;9744;49.364;7.484;2023-01-15T11:12:26;3.00;99.90
19220;DHT22;9744;49.364;7.484;2023-01-15T11:15:14;3.10;99.90
19220;DHT22;9744;49.364;7.484;2023-01-15T11:18:01;3.00;99.90
19220;DHT22;9744;49.364;7.484;2023-01-15T11:20:48;3.10;99.90
19220;DHT22;9744;49.364;7.484;2023-01-15T11:23:18;3.10;99.90
19220;DHT22;9744;49.364;7.484;2023-01-15T11:25:51;3.30;99.90
19220;DHT22;9744;49.364;7.484;2023-01-15T11:28:29;3.60;99.90
19220;DHT22;9744;49.364;7.484;2023-01-15T11:31:05;3.80;99.90
19220;DHT22;9744;49.364;7.484;2023-01-15T11:33:33;3.80;99.90
19220;DHT22;9744;49.364;7.484;2023-01-15T11:36:04;3.70;99.90
19220;DHT22;9744;49.364;7.484;2023-01-15T11:38:43;3.60;99.90
19220;DHT22;9744;49.364;7.484;2023-01-15T11:41:20;3.70;99.90
19220;DHT22;9744;49.364;7.484;2023-01-15T11:43:55;3.70;99.90
19220;DHT22;9744;49.364;7.484;2023-01-15T11:46:40;3.80;99.90
19220;DHT22;9744;49.364;7.484;2023-01-15T11:49:25;3.60;99.90
19220;DHT22;9744;49.364;7.484;2023-01-15T11:52:15;3.90;99.90
19220;DHT22;9744;49.364;7.484;2023-01-15T11:54:53;3.90;99.90
19220;DHT22;9744;49.364;7.484;2023-01-15T11:57:26;3.90;99.90
19220;DHT22;9744;49.364;7.484;2023-01-15T11:59:54;3.90;99.90
19220;DHT22;9744;49.364;7.484;2023-01-15T12:02:30;3.80;99.90
19220;DHT22;9744;49.364;7.484;2023-01-15T12:05:01;3.80;99.90
19220;DHT22;9744;49.364;7.484;2023-01-15T12:07:29;4.00;99.90
19220;DHT22;9744;49.364;7.484;2023-01-15T12:10:09;4.20;99.90
19220;DHT22;9744;49.364;7.484;2023-01-15T12:12:50;4.30;99.90
19220;DHT22;9744;49.364;7.484;2023-01-15T12:15:30;4.30;99.90
19220;DHT22;9744;49.364;7.484;2023-01-15T12:18:24;4.40;99.90
19220;DHT22;9744;49.364;7.484;2023-01-15T12:21:01;4.40;99.90
19220;DHT22;9744;49.364;7.484;2023-01-15T12:24:02;4.40;99.90
19220;DHT22;9744;49.364;7.484;2023-01-15T12:26:40;4.30;99.90
19220;DHT22;9744;49.364;7.484;2023-01-15T12:29:12;4.40;99.90
19220;DHT22;9744;49.364;7.484;2023-01-15T12:31:43;4.50;99.90
19220;DHT22;9744;49.364;7.484;2023-01-15T12:34:18;4.50;99.90
19220;DHT22;9744;49.364;7.484;2023-01-15T12:36:51;4.60;99.90
19220;DHT22;9744;49.364;7.484;2023-01-15T12:39:23;4.60;99.90
19220;DHT22;9744;49.364;7.484;2023-01-15T12:41:59;4.60;99.90
19220;DHT22;9744;49.364;7.484;2023-01-15T12:44:48;4.80;99.90
19220;DHT22;9744;49.364;7.484;2023-01-15T12:47:35;4.90;99.90
19220;DHT22;9744;49.364;7.484;2023-01-15T12:50:18;4.80;99.90
19220;DHT22;9744;49.364;7.484;2023-01-15T12:52:51;5.10;99.90
19220;DHT22;9744;49.364;7.484;2023-01-15T12:55:23;5.40;99.90
19220;DHT22;9744;49.364;7.484;2023-01-15T12:57:56;5.50;99.90
19220;DHT22;9744;49.364;7.484;2023-01-15T13:00:29;5.70;99.90
19220;DHT22;9744;49.364;7.484;2023-01-15T13:03:06;5.80;99.90
19220;DHT22;9744;49.364;7.484;2023-01-15T13:05:38;5.70;99.90
19220;DHT22;9744;49.364;7.484;2023-01-15T13:08:12;5.70;99.90
19220;DHT22;9744;49.364;7.484;2023-01-15T13:10:41;5.70;99.90
19220;DHT22;9744;49.364;7.484;2023-01-15T13:13:16;5.80;99.90
19220;DHT22;9744;49.364;7.484;2023-01-15T13:15:56;5.80;99.90
19220;DHT22;9744;49.364;7.484;2023-01-15T13:18:30;5.60;99.90
19220;DHT22;9744;49.364;7.484;2023-01-15T13:20:59;5.30;99.90
19220;DHT22;9744;49.364;7.484;2023-01-15T13:23:48;5.10;99.90
19220;DHT22;9744;49.364;7.484;2023-01-15T13:26:32;5.10;99.90
19220;DHT22;9744;49.364;7.484;2023-01-15T13:29:11;5.00;99.90
19220;DHT22;9744;49.364;7.484;2023-01-15T13:31:57;5.00;99.90
19220;DHT22;9744;49.364;7.484;2023-01-15T13:34:33;4.80;99.90
19220;DHT22;9744;49.364;7.484;2023-01-15T13:37:08;4.80;99.90
19220;DHT22;9744;49.364;7.484;2023-01-15T13:39:40;4.60;99.90
19220;DHT22;9744;49.364;7.484;2023-01-15T13:42:15;4.60;99.90
19220;DHT22;9744;49.364;7.484;2023-01-15T13:47:54;4.20;99.90
19220;DHT22;9744;49.364;7.484;2023-01-15T13:50:29;3.90;99.90
19220;DHT22;9744;49.364;7.484;2023-01-15T13:53:02;3.80;99.90
19220;DHT22;9744;49.364;7.484;2023-01-15T13:55:33;3.70;99.90
19220;DHT22;9744;49.364;7.484;2023-01-15T13:58:01;3.80;99.90
19220;DHT22;9744;49.364;7.484;2023-01-15T14:00:33;3.80;99.90
19220;DHT22;9744;49.364;7.484;2023-01-15T14:03:21;3.80;99.90
19220;DHT22;9744;49.364;7.484;2023-01-15T14:05:53;3.90;99.90
19220;DHT22;9744;49.364;7.484;2023-01-15T14:08:25;3.90;99.90
19220;DHT22;9744;49.364;7.484;2023-01-15T14:10:52;4.00;99.90
19220;DHT22;9744;49.364;7.484;2023-01-15T14:14:05;4.00;99.90
19220;DHT22;9744;49.364;7.484;2023-01-15T14:16:45;4.00;99.90
19220;DHT22;9744;49.364;7.484;2023-01-15T14:19:37;4.00;99.90
19220;DHT22;9744;49.364;7.484;2023-01-15T14:22:28;3.90;99.90
19220;DHT22;9744;49.364;7.484;2023-01-15T14:25:12;3.90;99.90
19220;DHT22;9744;49.364;7.484;2023-01-15T14:27:58;3.90;99.90
19220;DHT22;9744;49.364;7.484;2023-01-15T14:30:49;3.90;99.90
19220;DHT22;9744;49.364;7.484;2023-01-15T14:33:28;3.90;99.90
19220;DHT22;9744;49.364;7.484;2023-01-15T14:36:08;3.90;99.90
19220;DHT22;9744;49.364;7.484;2023-01-15T14:38:45;3.80;99.90
19220;DHT22;9744;49.364;7.484;2023-01-15T14:41:13;3.80;99.90
19220;DHT22;9744;49.364;7.484;2023-01-15T14:43:47;3.80;99.90
19220;DHT22;9744;49.364;7.484;2023-01-15T14:46:23;3.80;99.90
19220;DHT22;9744;49.364;7.484;2023-01-15T14:48:52;3.70;99.90
19220;DHT22;9744;49.364;7.484;2023-01-15T14:51:24;3.70;99.90
19220;DHT22;9744;49.364;7.484;2023-01-15T14:53:55;3.80;99.90
19220;DHT22;9744;49.364;7.484;2023-01-15T14:56:27;3.80;99.90
19220;DHT22;9744;49.364;7.484;2023-01-15T14:59:01;3.90;99.90
19220;DHT22;9744;49.364;7.484;2023-01-15T15:01:36;3.80;99.90
19220;DHT22;9744;49.364;7.484;2023-01-15T15:04:20;3.80;99.90
19220;DHT22;9744;49.364;7.484;2023-01-15T15:06:50;3.70;99.90
19220;DHT22;9744;49.364;7.484;2023-01-15T15:09:27;3.70;99.90
19220;DHT22;9744;49.364;7.484;2023-01-15T15:12:02;3.60;99.90
19220;DHT22;9744;49.364;7.484;2023-01-15T15:14:52;3.60;99.90
19220;DHT22;9744;49.364;7.484;2023-01-15T15:17:29;3.60;99.90
19220;DHT22;9744;49.364;7.484;2023-01-15T15:20:14;3.50;99.90
19220;DHT22;9744;49.364;7.484;2023-01-15T15:22:44;3.50;99.90
19220;DHT22;9744;49.364;7.484;2023-01-15T15:25:18;3.50;99.90
19220;DHT22;9744;49.364;7.484;2023-01-15T15:27:47;3.60;99.90
19220;DHT22;9744;49.364;7.484;2023-01-15T15:30:14;3.60;99.90
19220;DHT22;9744;49.364;7.484;2023-01-15T15:32:42;3.60;99.90
19220;DHT22;9744;49.364;7.484;2023-01-15T15:35:23;3.60;99.90
19220;DHT22;9744;49.364;7.484;2023-01-15T15:37:52;3.60;99.90
19220;DHT22;9744;49.364;7.484;2023-01-15T15:40:23;3.70;99.90
19220;DHT22;9744;49.364;7.484;2023-01-15T15:43:00;3.60;99.90
19220;DHT22;9744;49.364;7.484;2023-01-15T15:45:51;3.80;99.90
19220;DHT22;9744;49.364;7.484;2023-01-15T15:48:35;3.60;99.90
19220;DHT22;9744;49.364;7.484;2023-01-15T15:51:39;3.60;99.90
19220;DHT22;9744;49.364;7.484;2023-01-15T15:54:13;3.60;99.90
19220;DHT22;9744;49.364;7.484;2023-01-15T15:56:51;3.50;99.90
19220;DHT22;9744;49.364;7.484;2023-01-15T15:59:32;3.50;99.90
19220;DHT22;9744;49.364;7.484;2023-01-15T16:02:13;3.50;99.90
19220;DHT22;9744;49.364;7.484;2023-01-15T16:04:46;3.60;99.90
19220;DHT22;9744;49.364;7.484;2023-01-15T16:07:21;3.60;99.90
19220;DHT22;9744;49.364;7.484;2023-01-15T16:09:52;3.50;99.90
19220;DHT22;9744;49.364;7.484;2023-01-15T16:12:20;3.50;99.90
19220;DHT22;9744;49.364;7.484;2023-01-15T16:14:49;3.50;99.90
19220;DHT22;9744;49.364;7.484;2023-01-15T16:17:17;3.60;99.90
19220;DHT22;9744;49.364;7.484;2023-01-15T16:19:45;3.50;99.90
19220;DHT22;9744;49.364;7.484;2023-01-15T16:22:16;3.60;99.90
19220;DHT22;9744;49.364;7.484;2023-01-15T16:24:54;3.60;99.90
19220;DHT22;9744;49.364;7.484;2023-01-15T16:27:26;3.60;99.90
19220;DHT22;9744;49.364;7.484;2023-01-15T16:29:57;3.60;99.90
19220;DHT22;9744;49.364;7.484;2023-01-15T16:32:29;3.60;99.90
19220;DHT22;9744;49.364;7.484;2023-01-15T16:35:05;3.60;99.90
19220;DHT22;9744;49.364;7.484;2023-01-15T16:37:34;3.60;99.90
19220;DHT22;9744;49.364;7.484;2023-01-15T16:40:03;3.60;99.90
19220;DHT22;9744;49.364;7.484;2023-01-15T16:42:34;3.70;99.90